Henning, Minnesota
Current Conditions -  °F | °C
As of 7:35 AM on Friday 19 Dec 2014 (Local Time) from KADC Reporting Station
Haze Haze  
Wind Chill: -13°   Ceiling: 400
Heat Index: -7°   Visibility: 1.7mi
Dew Point: -7°   Wind: 9mph
Humidity: 100%   Direction: 330°NNW
Pressure: 30.13"   Gusts: NA
Location:  46.32°N, 95.45°W
Report Text: KADC 191335Z AUTO 33008KT 1 3/4SM BR OVC004 M07/M07 A3013 RMK AO2
Loading
Personal Weather Stations






























Interactive Weather Map New forecast layout! Learn more

10-Day Weather Forecast

Advertisements
Track Severe Weather on mobile